createdAt,value
2024-04-22T00:00:09.256Z,23.94
2024-04-22T00:01:09.311Z,23.94
2024-04-22T00:02:09.269Z,23.97
2024-04-22T00:03:09.261Z,23.99
2024-04-22T00:04:09.377Z,23.99
2024-04-22T00:05:09.269Z,24.00
2024-04-22T00:06:09.262Z,24.01
2024-04-22T00:07:09.305Z,24.02
2024-04-22T00:08:09.260Z,24.04
2024-04-22T00:09:09.276Z,24.04
2024-04-22T00:10:09.347Z,24.05
2024-04-22T00:11:09.402Z,24.05
2024-04-22T00:12:09.266Z,24.03
2024-04-22T00:13:09.303Z,24.03
2024-04-22T00:14:09.286Z,24.03
2024-04-22T00:15:09.293Z,24.03
2024-04-22T00:16:09.321Z,24.03
2024-04-22T00:17:09.331Z,24.04
2024-04-22T00:18:09.326Z,24.04
2024-04-22T00:19:09.339Z,24.04
2024-04-22T00:20:09.315Z,24.04
2024-04-22T00:21:09.316Z,24.04
2024-04-22T00:22:09.388Z,24.05
2024-04-22T00:23:09.305Z,24.05
2024-04-22T00:24:09.332Z,24.03
2024-04-22T00:25:09.346Z,24.03
2024-04-22T00:26:09.327Z,24.04
2024-04-22T00:27:09.457Z,24.05
2024-04-22T00:28:09.429Z,24.03
2024-04-22T00:29:09.381Z,24.04
2024-04-22T00:30:09.376Z,24.03
2024-04-22T00:31:09.390Z,24.04
2024-04-22T00:32:09.414Z,24.03
2024-04-22T00:33:09.457Z,24.04
2024-04-22T00:34:09.412Z,24.03
2024-04-22T00:35:09.378Z,24.02
2024-04-22T00:36:09.387Z,24.02
2024-04-22T00:37:09.425Z,24.03
2024-04-22T00:38:09.426Z,24.04
2024-04-22T00:39:09.407Z,24.04
2024-04-22T00:40:09.422Z,24.05
2024-04-22T00:41:09.408Z,24.04
2024-04-22T00:42:09.443Z,24.02
2024-04-22T00:43:09.486Z,24.02
2024-04-22T00:44:09.462Z,24.03
2024-04-22T00:45:09.441Z,24.01
2024-04-22T00:46:09.498Z,24.00
2024-04-22T00:47:09.511Z,24.01
2024-04-22T00:48:09.642Z,24.03
2024-04-22T00:49:09.721Z,24.02
2024-04-22T00:50:09.797Z,24.02
2024-04-22T00:51:09.906Z,24.03
2024-04-22T00:52:10.061Z,24.03
2024-04-22T00:53:10.123Z,24.03
2024-04-22T00:54:10.231Z,24.01
2024-04-22T00:55:10.448Z,24.00
2024-04-22T00:56:10.507Z,24.01
2024-04-22T00:57:10.557Z,24.03
2024-04-22T00:58:10.689Z,24.03
2024-04-22T00:59:10.821Z,24.03
2024-04-22T01:00:10.898Z,24.02
2024-04-22T01:01:11.146Z,24.01
2024-04-22T01:02:11.124Z,24.02
2024-04-22T01:03:11.262Z,24.02
2024-04-22T01:04:11.438Z,24.00
2024-04-22T01:05:11.540Z,23.97
2024-04-22T01:06:11.567Z,23.98
2024-04-22T01:07:11.719Z,23.99
2024-04-22T01:08:11.774Z,23.99
2024-04-22T01:09:11.882Z,24.01
2024-04-22T01:10:12.008Z,24.01
2024-04-22T01:11:12.114Z,24.00
2024-04-22T01:12:12.209Z,24.01
2024-04-22T01:13:12.368Z,24.01
2024-04-22T01:14:12.476Z,24.01
2024-04-22T01:15:12.538Z,24.02
2024-04-22T01:16:12.681Z,24.03
2024-04-22T01:17:12.786Z,24.02
2024-04-22T01:18:12.893Z,24.00
2024-04-22T01:19:13.016Z,23.98
2024-04-22T01:20:13.079Z,23.98
2024-04-22T01:21:13.192Z,23.99
2024-04-22T01:22:13.343Z,24.00
2024-04-22T01:23:13.420Z,24.01
2024-04-22T01:24:13.504Z,24.02
2024-04-22T01:25:13.640Z,24.03
2024-04-22T01:26:13.726Z,24.03
2024-04-22T01:27:13.851Z,24.03
2024-04-22T01:28:13.988Z,24.03
2024-04-22T01:29:14.062Z,23.99
2024-04-22T01:30:14.189Z,24.01
2024-04-22T01:31:14.300Z,24.02
2024-04-22T01:32:14.397Z,24.02
2024-04-22T01:33:14.587Z,24.02
2024-04-22T01:34:14.613Z,24.02
2024-04-22T01:35:14.715Z,24.02
2024-04-22T01:36:14.820Z,24.03
2024-04-22T01:37:14.935Z,24.02
2024-04-22T01:38:15.044Z,24.02
2024-04-22T01:39:15.152Z,24.03
2024-04-22T01:40:15.317Z,24.03
2024-04-22T01:41:15.366Z,24.03
2024-04-22T01:42:15.490Z,24.04
2024-04-22T01:43:15.702Z,24.01
2024-04-22T01:44:15.706Z,24.02
2024-04-22T01:45:15.828Z,24.02
2024-04-22T01:46:16.012Z,24.03
2024-04-22T01:47:16.044Z,24.04
2024-04-22T01:48:16.116Z,24.03
2024-04-22T01:49:16.256Z,24.02
2024-04-22T01:50:16.332Z,24.02
2024-04-22T01:51:16.438Z,24.02
2024-04-22T01:52:16.658Z,24.03
2024-04-22T01:53:16.678Z,24.03
2024-04-22T01:54:16.763Z,24.03
2024-04-22T01:55:16.922Z,24.02
2024-04-22T01:56:16.984Z,23.99
2024-04-22T01:57:17.234Z,23.98
2024-04-22T01:58:17.302Z,23.96
2024-04-22T01:59:17.319Z,23.97
2024-04-22T02:00:17.432Z,23.96
2024-04-22T02:01:17.579Z,23.97
2024-04-22T02:02:17.699Z,23.98
2024-04-22T02:03:17.802Z,23.98
2024-04-22T02:04:17.869Z,23.99
2024-04-22T02:05:17.965Z,24.00
2024-04-22T02:06:18.079Z,24.01
2024-04-22T02:07:18.184Z,23.99
2024-04-22T02:08:18.279Z,23.99
2024-04-22T02:09:18.383Z,23.99
2024-04-22T02:10:23.388Z,24.00
2024-04-22T02:11:18.577Z,24.00
2024-04-22T02:12:18.511Z,24.00
2024-04-22T02:13:18.567Z,23.99
2024-04-22T02:14:18.512Z,24.00
2024-04-22T02:15:18.605Z,24.00
2024-04-22T02:16:18.588Z,24.00
2024-04-22T02:17:18.600Z,24.01
2024-04-22T02:18:18.664Z,24.03
2024-04-22T02:19:18.588Z,24.03
2024-04-22T02:20:18.570Z,24.02
2024-04-22T02:21:18.579Z,24.03
2024-04-22T02:22:18.624Z,24.02
2024-04-22T02:23:18.587Z,24.01
2024-04-22T02:24:18.581Z,24.00
2024-04-22T02:25:18.594Z,24.00
2024-04-22T02:26:18.588Z,24.00
2024-04-22T02:27:18.581Z,23.98
2024-04-22T02:28:18.626Z,23.99
2024-04-22T02:29:18.630Z,23.99
2024-04-22T02:30:18.617Z,24.00
2024-04-22T02:31:18.647Z,24.00
2024-04-22T02:32:18.599Z,24.01
2024-04-22T02:33:18.694Z,24.01
2024-04-22T02:34:18.675Z,24.02
2024-04-22T02:35:18.643Z,24.02
2024-04-22T02:36:18.639Z,24.03
2024-04-22T02:37:18.660Z,24.01
2024-04-22T02:38:18.635Z,23.98
2024-04-22T02:39:18.635Z,23.98
2024-04-22T02:40:18.670Z,24.00
2024-04-22T02:41:18.641Z,24.00
2024-04-22T02:42:18.641Z,24.00
2024-04-22T02:43:18.654Z,24.00
2024-04-22T02:44:18.650Z,23.99
2024-04-22T02:45:18.644Z,23.98
2024-04-22T02:46:18.770Z,23.97
2024-04-22T02:47:18.886Z,23.98
2024-04-22T02:48:19.029Z,23.97
2024-04-22T02:49:19.088Z,23.99
2024-04-22T02:50:19.216Z,23.99
2024-04-22T02:51:19.308Z,24.00
2024-04-22T02:52:19.410Z,23.98
2024-04-22T02:53:19.518Z,23.99
2024-04-22T02:54:19.634Z,23.98
2024-04-22T02:55:19.752Z,23.97
2024-04-22T02:56:19.854Z,23.99
2024-04-22T02:57:19.949Z,24.00
2024-04-22T02:58:20.071Z,24.00
2024-04-22T02:59:20.184Z,24.00
2024-04-22T03:00:20.284Z,23.96
2024-04-22T03:01:20.434Z,23.96
2024-04-22T03:02:20.527Z,23.96
2024-04-22T03:03:20.638Z,23.97
2024-04-22T03:04:20.780Z,23.99
2024-04-22T03:05:20.842Z,23.99
2024-04-22T03:06:20.965Z,23.99
2024-04-22T03:07:21.077Z,24.00
2024-04-22T03:08:21.167Z,23.99
2024-04-22T03:09:21.282Z,23.98
2024-04-22T03:10:21.443Z,23.98
2024-04-22T03:11:21.552Z,23.99
2024-04-22T03:12:21.612Z,24.00
2024-04-22T03:13:21.829Z,24.00
2024-04-22T03:14:21.833Z,24.00
2024-04-22T03:15:21.930Z,24.02
2024-04-22T03:16:22.081Z,24.01
2024-04-22T03:17:22.200Z,23.99
2024-04-22T03:18:22.281Z,23.97
2024-04-22T03:19:22.446Z,23.97
2024-04-22T03:20:24.679Z,23.98
2024-04-22T03:21:22.511Z,23.99
2024-04-22T03:22:22.547Z,23.98
2024-04-22T03:23:22.477Z,23.99
2024-04-22T03:24:22.482Z,23.98
2024-04-22T03:25:22.544Z,23.98
2024-04-22T03:26:22.532Z,24.00
2024-04-22T03:27:22.536Z,23.99
2024-04-22T03:28:22.564Z,24.00
2024-04-22T03:29:22.538Z,24.00
2024-04-22T03:30:22.523Z,23.98
2024-04-22T03:31:22.630Z,23.99
2024-04-22T03:32:22.635Z,23.97
2024-04-22T03:33:22.543Z,23.98
2024-04-22T03:34:22.599Z,23.99
2024-04-22T03:35:22.540Z,23.98
2024-04-22T03:36:22.547Z,23.99
2024-04-22T03:37:22.623Z,23.98
2024-04-22T03:38:22.540Z,23.97
2024-04-22T03:39:22.593Z,23.97
2024-04-22T03:40:22.609Z,23.96
2024-04-22T03:41:22.581Z,23.98
2024-04-22T03:42:22.588Z,23.97
2024-04-22T03:43:22.620Z,23.97
2024-04-22T03:44:22.597Z,23.96
2024-04-22T03:45:22.639Z,23.97
2024-04-22T03:46:22.638Z,23.97
2024-04-22T03:47:22.732Z,23.97
2024-04-22T03:48:22.647Z,23.98
2024-04-22T03:49:22.678Z,24.00
2024-04-22T03:50:22.640Z,23.99
2024-04-22T03:51:22.646Z,23.99
2024-04-22T03:52:22.796Z,23.99
2024-04-22T03:53:22.648Z,23.98
2024-04-22T03:54:22.648Z,23.99
2024-04-22T03:55:22.652Z,23.99
2024-04-22T03:56:22.791Z,23.97
2024-04-22T03:57:22.913Z,23.97
2024-04-22T03:58:23.040Z,23.97
2024-04-22T03:59:23.083Z,23.96
2024-04-22T04:00:24.574Z,23.96
2024-04-22T04:01:22.523Z,23.97
2024-04-22T04:02:23.254Z,23.98
2024-04-22T04:03:23.275Z,23.97
2024-04-22T04:04:23.429Z,23.95
2024-04-22T04:05:23.637Z,23.95
2024-04-22T04:06:23.244Z,23.96
2024-04-22T04:07:23.247Z,23.97
2024-04-22T04:08:23.225Z,23.95
2024-04-22T04:09:23.247Z,23.97
2024-04-22T04:10:23.270Z,23.96
2024-04-22T04:11:23.291Z,23.96
2024-04-22T04:12:23.230Z,23.97
2024-04-22T04:13:23.261Z,23.98
2024-04-22T04:14:23.257Z,23.98
2024-04-22T04:15:23.230Z,23.98
2024-04-22T04:16:23.296Z,23.98
2024-04-22T04:17:23.350Z,23.98
2024-04-22T04:18:23.247Z,23.98
2024-04-22T04:19:23.356Z,24.00
2024-04-22T04:20:23.258Z,23.96
2024-04-22T04:21:30.282Z,23.93
2024-04-22T04:22:31.369Z,23.96
2024-04-22T04:23:31.287Z,23.96
2024-04-22T04:24:31.318Z,23.97
2024-04-22T04:25:31.310Z,23.97
2024-04-22T04:26:31.315Z,23.96
2024-04-22T04:27:31.292Z,23.96
2024-04-22T04:28:31.453Z,23.96
2024-04-22T04:29:31.312Z,23.96
2024-04-22T04:30:31.308Z,23.95
2024-04-22T04:31:38.538Z,23.92
2024-04-22T04:32:39.400Z,23.93
2024-04-22T04:33:39.355Z,23.94
2024-04-22T04:34:39.442Z,23.96
2024-04-22T04:35:39.361Z,23.96
2024-04-22T04:36:39.354Z,23.96
2024-04-22T04:37:39.464Z,23.97
2024-04-22T04:38:39.348Z,23.98
2024-04-22T04:39:39.368Z,23.99
2024-04-22T04:40:39.380Z,23.99
2024-04-22T04:41:39.351Z,24.00
2024-04-22T04:42:39.353Z,24.01
2024-04-22T04:43:39.454Z,24.00
2024-04-22T04:44:39.356Z,24.00
2024-04-22T04:45:39.357Z,23.99
2024-04-22T04:46:39.374Z,23.99
2024-04-22T04:47:39.411Z,23.98
2024-04-22T04:48:39.349Z,23.99
2024-04-22T04:49:39.434Z,23.99
2024-04-22T04:50:39.355Z,23.99
2024-04-22T04:51:39.361Z,23.98
2024-04-22T04:52:39.450Z,23.99
2024-04-22T04:53:39.389Z,23.98
2024-04-22T04:54:39.390Z,23.97
2024-04-22T04:55:39.466Z,23.96
2024-04-22T04:56:39.366Z,23.96
2024-04-22T04:57:39.367Z,23.95
2024-04-22T04:58:39.432Z,23.95
2024-04-22T04:59:39.393Z,23.96
2024-04-22T05:00:39.455Z,23.96
2024-04-22T05:01:39.538Z,23.97
2024-04-22T05:02:39.477Z,23.96
2024-04-22T05:03:39.459Z,23.97
2024-04-22T05:04:39.457Z,23.97
2024-04-22T05:05:39.426Z,23.98
2024-04-22T05:06:39.428Z,23.96
2024-04-22T05:07:39.469Z,23.95
2024-04-22T05:08:39.407Z,23.95
2024-04-22T05:09:39.418Z,23.98
2024-04-22T05:10:39.462Z,23.99
2024-04-22T05:11:39.452Z,24.00
2024-04-22T05:12:39.427Z,24.01
2024-04-22T05:13:39.462Z,24.01
2024-04-22T05:14:39.430Z,24.01
2024-04-22T05:15:39.452Z,24.00
2024-04-22T05:16:39.460Z,24.00
2024-04-22T05:17:39.553Z,23.99
2024-04-22T05:18:42.467Z,23.99
2024-04-22T05:19:39.620Z,24.00
2024-04-22T05:20:39.526Z,24.00
2024-04-22T05:21:39.522Z,24.00
2024-04-22T05:22:39.583Z,24.01
2024-04-22T05:23:39.526Z,24.00
2024-04-22T05:24:39.533Z,23.99
2024-04-22T05:25:39.571Z,23.99
2024-04-22T05:26:39.664Z,24.00
2024-04-22T05:27:39.999Z,23.98
2024-04-22T05:28:39.918Z,23.96
2024-04-22T05:29:39.975Z,23.97
2024-04-22T05:30:40.082Z,23.97
2024-04-22T05:31:40.263Z,23.99
2024-04-22T05:32:40.436Z,23.99
2024-04-22T05:33:40.420Z,24.00
2024-04-22T05:34:40.585Z,24.00
2024-04-22T05:35:40.588Z,24.01
2024-04-22T05:36:40.697Z,24.01
2024-04-22T05:37:40.880Z,24.02
2024-04-22T05:38:40.931Z,23.78
2024-04-22T05:39:40.999Z,23.49
2024-04-22T05:40:41.121Z,23.18
2024-04-22T05:41:41.193Z,22.89
2024-04-22T05:42:41.228Z,22.62
2024-04-22T05:43:41.504Z,22.33
2024-04-22T05:44:41.431Z,22.11
2024-04-22T05:45:41.514Z,21.91
2024-04-22T05:46:41.721Z,21.77
2024-04-22T05:47:41.746Z,21.65
2024-04-22T05:48:41.789Z,21.52
2024-04-22T05:49:41.884Z,21.42
2024-04-22T05:50:41.944Z,21.33
2024-04-22T05:51:41.967Z,21.26
2024-04-22T05:52:42.544Z,21.21
2024-04-22T05:53:42.102Z,21.18
2024-04-22T05:54:42.132Z,21.16
2024-04-22T05:55:42.350Z,21.26
2024-04-22T05:56:42.499Z,21.39
2024-04-22T05:57:42.254Z,21.50
2024-04-22T05:58:42.416Z,21.61
2024-04-22T05:59:42.355Z,21.77
2024-04-22T06:00:42.510Z,21.91
2024-04-22T06:01:42.542Z,22.05
2024-04-22T06:02:42.755Z,22.18
2024-04-22T06:03:42.683Z,22.29
2024-04-22T06:04:42.760Z,22.40
2024-04-22T06:05:42.763Z,22.49
2024-04-22T06:06:42.893Z,22.59
2024-04-22T06:07:43.114Z,22.68
2024-04-22T06:08:43.136Z,22.76
2024-04-22T06:09:43.235Z,22.81
2024-04-22T06:10:43.487Z,22.88
2024-04-22T06:11:53.365Z,22.93
2024-04-22T06:12:43.440Z,22.98
2024-04-22T06:13:43.599Z,23.03
2024-04-22T06:14:43.425Z,23.08
2024-04-22T06:15:43.467Z,23.12
2024-04-22T06:16:43.555Z,23.16
2024-04-22T06:17:43.430Z,23.20
2024-04-22T06:18:43.439Z,23.23
2024-04-22T06:19:43.551Z,23.25
2024-04-22T06:20:43.449Z,23.27
2024-04-22T06:21:43.456Z,23.29
2024-04-22T06:22:43.469Z,23.32
2024-04-22T06:23:43.451Z,23.34
2024-04-22T06:24:43.448Z,23.35
2024-04-22T06:25:43.533Z,23.36
2024-04-22T06:26:43.485Z,23.38
2024-04-22T06:27:43.463Z,23.40
2024-04-22T06:28:43.678Z,23.41
2024-04-22T06:29:44.494Z,23.42
2024-04-22T06:30:43.496Z,23.43
2024-04-22T06:31:43.613Z,23.44
2024-04-22T06:32:43.559Z,23.45
2024-04-22T06:33:43.510Z,23.46
2024-04-22T06:34:43.591Z,23.45
2024-04-22T06:35:43.527Z,23.46
2024-04-22T06:36:44.011Z,23.46
2024-04-22T06:37:43.715Z,23.47
2024-04-22T06:38:43.779Z,23.48
2024-04-22T06:39:43.874Z,23.49
2024-04-22T06:40:44.028Z,23.50
2024-04-22T06:41:44.107Z,23.50
2024-04-22T06:42:44.508Z,23.50
2024-04-22T06:43:44.280Z,23.52
2024-04-22T06:44:44.368Z,23.51
2024-04-22T06:45:44.573Z,23.53
2024-04-22T06:46:44.690Z,23.54
2024-04-22T06:47:45.153Z,23.54
2024-04-22T06:48:44.732Z,23.55
2024-04-22T06:49:44.874Z,23.54
2024-04-22T06:50:44.840Z,23.55
2024-04-22T06:51:44.910Z,23.55
2024-04-22T06:52:45.032Z,23.54
2024-04-22T06:53:45.014Z,23.54
2024-04-22T06:54:45.069Z,23.54
2024-04-22T06:55:45.213Z,23.55
2024-04-22T06:56:46.344Z,23.55
2024-04-22T06:57:45.312Z,23.55
2024-04-22T06:58:45.509Z,23.55
2024-04-22T06:59:45.448Z,23.54
2024-04-22T07:00:45.553Z,23.54
2024-04-22T07:01:45.694Z,23.54
2024-04-22T07:02:45.704Z,23.55
2024-04-22T07:03:45.897Z,23.55
2024-04-22T07:04:45.878Z,23.55
2024-04-22T07:05:45.862Z,23.56
2024-04-22T07:06:45.913Z,23.57
2024-04-22T07:07:46.053Z,23.57
2024-04-22T07:08:46.071Z,23.58
2024-04-22T07:09:46.174Z,23.59
2024-04-22T07:10:46.297Z,23.60
2024-04-22T07:11:46.392Z,23.61
2024-04-22T07:12:46.513Z,23.60
2024-04-22T07:13:46.664Z,23.60
2024-04-22T07:14:46.751Z,23.61
2024-04-22T07:15:46.793Z,23.62
2024-04-22T07:16:47.092Z,23.62
2024-04-22T07:17:47.115Z,23.62
2024-04-22T07:18:48.284Z,23.62
2024-04-22T07:19:47.190Z,23.63
2024-04-22T07:20:47.090Z,23.62
2024-04-22T07:21:47.117Z,23.62
2024-04-22T07:22:47.152Z,23.61
2024-04-22T07:23:47.126Z,23.61
2024-04-22T07:24:57.140Z,23.62
2024-04-22T07:25:47.224Z,23.61
2024-04-22T07:26:47.130Z,23.61
2024-04-22T07:27:47.133Z,23.61
2024-04-22T07:28:47.173Z,23.61
2024-04-22T07:29:47.167Z,23.62
2024-04-22T07:30:47.174Z,23.62
2024-04-22T07:31:47.295Z,23.62
2024-04-22T07:32:47.651Z,23.61
2024-04-22T07:33:47.212Z,23.60
2024-04-22T07:34:47.278Z,23.62
2024-04-22T07:35:47.315Z,23.63
2024-04-22T07:36:47.221Z,23.67
2024-04-22T07:37:47.602Z,23.69
2024-04-22T07:38:47.202Z,23.72
2024-04-22T07:39:48.410Z,23.76
2024-04-22T07:40:47.351Z,23.78
2024-04-22T07:41:47.259Z,23.81
2024-04-22T07:42:47.224Z,23.85
2024-04-22T07:43:47.598Z,23.86
2024-04-22T07:44:47.250Z,23.89
2024-04-22T07:45:47.247Z,23.91
2024-04-22T07:46:47.281Z,23.95
2024-04-22T07:47:47.274Z,23.97
2024-04-22T07:48:47.241Z,24.00
2024-04-22T07:49:47.279Z,24.02
2024-04-22T07:50:47.232Z,24.05
2024-04-22T07:51:47.264Z,24.07
2024-04-22T07:52:47.602Z,24.12
2024-04-22T07:53:47.242Z,24.14
2024-04-22T07:54:47.248Z,24.17
2024-04-22T07:55:47.358Z,24.17
2024-04-22T07:56:50.112Z,24.18
2024-04-22T07:57:47.618Z,24.17
2024-04-22T07:58:47.374Z,24.17
2024-04-22T07:59:47.252Z,24.16
2024-04-22T08:00:47.454Z,24.17
2024-04-22T08:01:47.365Z,24.17
2024-04-22T08:02:47.332Z,24.17
2024-04-22T08:03:47.794Z,24.17
2024-04-22T08:04:47.384Z,24.16
2024-04-22T08:05:47.459Z,24.16
2024-04-22T08:06:47.350Z,24.16
2024-04-22T08:07:47.700Z,24.16
2024-04-22T08:08:47.360Z,24.15
2024-04-22T08:09:47.667Z,24.14
2024-04-22T08:10:47.660Z,24.14
2024-04-22T08:11:47.813Z,24.13
2024-04-22T08:12:47.443Z,24.12
2024-04-22T08:13:47.713Z,24.13
2024-04-22T08:14:47.524Z,24.12
2024-04-22T08:15:47.517Z,24.11
2024-04-22T08:16:47.725Z,24.11
2024-04-22T08:17:47.728Z,24.12
2024-04-22T08:18:47.453Z,24.11
2024-04-22T08:19:47.569Z,24.11
2024-04-22T08:20:47.522Z,24.11
2024-04-22T08:21:47.511Z,24.10
2024-04-22T08:22:47.582Z,24.11
2024-04-22T08:23:47.476Z,24.10
2024-04-22T08:24:47.531Z,24.10
2024-04-22T08:25:47.455Z,24.11
2024-04-22T08:26:47.493Z,24.11
2024-04-22T08:27:47.435Z,24.11
2024-04-22T08:28:47.490Z,24.12
2024-04-22T08:29:47.924Z,24.12
2024-04-22T08:30:47.473Z,24.12
2024-04-22T08:31:47.576Z,24.11
2024-04-22T08:32:47.912Z,24.12
2024-04-22T08:33:47.907Z,24.11
2024-04-22T08:34:47.659Z,24.12
2024-04-22T08:35:47.754Z,24.12
2024-04-22T08:36:47.842Z,24.12
2024-04-22T08:37:47.753Z,24.12
2024-04-22T08:38:47.812Z,24.13
2024-04-22T08:39:48.059Z,24.13
2024-04-22T08:40:47.843Z,24.12
2024-04-22T08:41:48.063Z,24.11
2024-04-22T08:42:48.480Z,24.12
2024-04-22T08:43:48.405Z,24.11
2024-04-22T08:44:48.492Z,24.11
2024-04-22T08:46:20.336Z,24.11
2024-04-22T08:46:48.770Z,24.11
2024-04-22T08:47:48.720Z,24.10
2024-04-22T08:48:48.603Z,24.10
2024-04-22T08:49:48.482Z,24.11
2024-04-22T08:50:48.390Z,24.11
2024-04-22T08:51:48.393Z,24.12
2024-04-22T08:52:55.816Z,24.12
2024-04-22T08:53:48.414Z,24.13
2024-04-22T08:54:48.408Z,24.14
2024-04-22T08:55:48.542Z,24.15
2024-04-22T08:56:48.399Z,24.15
2024-04-22T08:57:48.406Z,24.16
2024-04-22T08:58:48.484Z,24.17
2024-04-22T08:59:49.459Z,24.17
2024-04-22T09:00:48.460Z,24.17
2024-04-22T09:01:48.443Z,24.18
2024-04-22T09:02:48.507Z,24.18
2024-04-22T09:03:48.665Z,24.18
2024-04-22T09:04:48.655Z,24.19
2024-04-22T09:05:48.664Z,24.19
2024-04-22T09:06:48.676Z,24.19
2024-04-22T09:07:48.778Z,24.19
2024-04-22T09:08:48.865Z,24.18
2024-04-22T09:10:09.996Z,24.18
2024-04-22T09:11:22.112Z,24.18
2024-04-22T09:12:06.458Z,24.16
2024-04-22T09:12:49.182Z,24.15
2024-04-22T09:13:49.175Z,24.16
2024-04-22T09:14:49.273Z,24.16
2024-04-22T09:15:48.954Z,24.15
2024-04-22T09:16:49.101Z,24.15
2024-04-22T09:17:49.537Z,24.14
2024-04-22T09:18:49.155Z,24.14
2024-04-22T09:19:49.041Z,24.14
2024-04-22T09:20:48.995Z,24.14
2024-04-22T09:21:48.953Z,24.13
2024-04-22T09:22:49.095Z,24.13
2024-04-22T09:23:49.077Z,24.13
2024-04-22T09:24:49.606Z,24.13
2024-04-22T09:25:49.054Z,24.13
2024-04-22T09:26:49.006Z,24.13
2024-04-22T09:27:49.100Z,24.14
2024-04-22T09:28:49.061Z,24.13
2024-04-22T09:29:49.078Z,24.11
2024-04-22T09:30:49.032Z,24.12
2024-04-22T09:31:49.094Z,24.14
2024-04-22T09:32:49.285Z,24.16
2024-04-22T09:33:49.299Z,24.18
2024-04-22T09:34:49.172Z,24.21
2024-04-22T09:35:49.214Z,24.24
2024-04-22T09:36:49.052Z,24.28
2024-04-22T09:37:49.925Z,24.29
2024-04-22T09:38:49.316Z,24.32
2024-04-22T09:39:49.071Z,24.34
2024-04-22T09:40:49.682Z,24.37
2024-04-22T09:41:49.200Z,24.39
2024-04-22T09:42:49.372Z,24.25
2024-04-22T09:43:52.280Z,24.02
2024-04-22T09:44:49.508Z,23.71
2024-04-22T09:45:49.057Z,23.36
2024-04-22T09:46:49.350Z,23.00
2024-04-22T09:47:49.156Z,22.65
2024-04-22T09:48:49.491Z,22.44
2024-04-22T09:49:49.425Z,22.21
2024-04-22T09:50:49.275Z,21.99
2024-04-22T09:51:49.621Z,21.88
2024-04-22T09:53:48.337Z,21.63
2024-04-22T09:54:52.005Z,21.48
2024-04-22T09:55:49.149Z,21.33
2024-04-22T09:56:49.589Z,21.15
2024-04-22T09:57:50.062Z,21.08
2024-04-22T09:58:49.201Z,21.01
2024-04-22T09:59:49.487Z,20.91
2024-04-22T10:00:51.542Z,20.88
2024-04-22T10:01:49.492Z,20.83
2024-04-22T10:02:49.483Z,20.87
2024-04-22T10:03:49.804Z,20.88
2024-04-22T10:04:49.588Z,20.81
2024-04-22T10:05:49.585Z,20.74
2024-04-22T10:06:49.417Z,20.75
2024-04-22T10:07:49.353Z,20.90
2024-04-22T10:08:49.563Z,21.10
2024-04-22T10:09:49.459Z,21.31
2024-04-22T10:10:49.712Z,21.53
2024-04-22T10:11:50.011Z,21.75
2024-04-22T10:12:49.662Z,21.93
2024-04-22T10:13:50.317Z,22.13
2024-04-22T10:14:49.656Z,22.29
2024-04-22T10:15:49.663Z,22.44
2024-04-22T10:16:49.677Z,22.59
2024-04-22T10:17:49.787Z,22.72
2024-04-22T10:18:49.981Z,22.84
2024-04-22T10:19:50.075Z,22.93
2024-04-22T10:20:49.948Z,23.02
2024-04-22T10:21:50.050Z,23.10
2024-04-22T10:22:50.148Z,23.18
2024-04-22T10:23:50.159Z,23.24
2024-04-22T10:24:52.547Z,23.32
2024-04-22T10:25:50.260Z,23.38
2024-04-22T10:26:56.926Z,23.44
2024-04-22T10:27:50.205Z,23.50
2024-04-22T10:28:50.356Z,23.56
2024-04-22T10:29:50.195Z,23.58
2024-04-22T10:30:50.200Z,23.65
2024-04-22T10:31:50.500Z,23.70
2024-04-22T10:32:50.799Z,23.76
2024-04-22T10:33:49.489Z,23.82
2024-04-22T10:34:50.569Z,23.88
2024-04-22T10:35:50.523Z,23.93
2024-04-22T10:36:52.740Z,23.85
2024-04-22T10:37:50.683Z,23.73
2024-04-22T10:38:50.565Z,23.62
2024-04-22T10:39:50.603Z,23.43
2024-04-22T10:40:50.636Z,23.32
2024-04-22T10:41:50.598Z,23.14
2024-04-22T10:42:51.895Z,22.97
2024-04-22T10:43:50.627Z,22.86
2024-04-22T10:44:50.597Z,22.79
2024-04-22T10:45:50.690Z,22.66
2024-04-22T10:46:51.189Z,22.55
2024-04-22T10:48:01.424Z,22.50
2024-04-22T10:48:52.523Z,22.40
2024-04-22T10:49:50.852Z,22.31
2024-04-22T10:50:50.693Z,22.24
2024-04-22T10:51:50.684Z,22.20
2024-04-22T10:52:50.802Z,22.13
2024-04-22T10:53:50.722Z,22.08
2024-04-22T10:54:53.275Z,22.03
2024-04-22T10:55:50.727Z,22.00
2024-04-22T10:56:50.714Z,22.00
2024-04-22T10:57:50.722Z,22.02
2024-04-22T10:58:50.771Z,22.01
2024-04-22T10:59:50.718Z,21.97
2024-04-22T11:00:52.094Z,21.94
2024-04-22T11:01:51.078Z,21.89
2024-04-22T11:02:51.091Z,21.84
2024-04-22T11:03:51.087Z,21.83
2024-04-22T11:04:51.292Z,21.81
2024-04-22T11:05:51.151Z,21.82
2024-04-22T11:06:51.582Z,21.82
2024-04-22T11:07:51.244Z,21.84
2024-04-22T11:08:51.245Z,21.84
2024-04-22T11:09:51.297Z,21.77
2024-04-22T11:10:51.432Z,21.79
2024-04-22T11:11:51.602Z,21.89
2024-04-22T11:12:51.408Z,21.96
2024-04-22T11:13:51.487Z,22.08
2024-04-22T11:14:51.484Z,22.19
2024-04-22T11:15:51.580Z,22.34
2024-04-22T11:16:51.664Z,22.46
2024-04-22T11:17:51.738Z,22.59
2024-04-22T11:18:51.792Z,22.72
2024-04-22T11:19:52.005Z,22.82
2024-04-22T11:20:52.038Z,22.93
2024-04-22T11:21:52.117Z,23.02
2024-04-22T11:22:52.276Z,23.11
2024-04-22T11:23:52.261Z,23.20
2024-04-22T11:24:52.346Z,23.30
2024-04-22T11:25:52.448Z,23.38
2024-04-22T11:26:52.448Z,23.48
2024-04-22T11:27:52.522Z,23.56
2024-04-22T11:28:52.642Z,23.63
2024-04-22T11:29:52.708Z,23.71
2024-04-22T11:30:52.807Z,23.75
2024-04-22T11:31:52.967Z,23.82
2024-04-22T11:32:53.097Z,23.88
2024-04-22T11:33:53.136Z,23.94
2024-04-22T11:34:53.279Z,24.00
2024-04-22T11:35:53.363Z,24.04
2024-04-22T11:36:53.464Z,24.08
2024-04-22T11:37:53.603Z,24.12
2024-04-22T11:38:56.054Z,24.17
2024-04-22T11:39:53.698Z,24.19
2024-04-22T11:40:53.744Z,24.22
2024-04-22T11:41:53.684Z,24.27
2024-04-22T11:42:53.689Z,24.30
2024-04-22T11:43:54.170Z,24.33
2024-04-22T11:44:53.699Z,24.36
2024-04-22T11:45:53.696Z,24.38
2024-04-22T11:46:53.805Z,24.41
2024-04-22T11:47:53.725Z,24.43
2024-04-22T11:48:53.688Z,24.46
2024-04-22T11:49:53.747Z,24.48
2024-04-22T11:50:53.696Z,24.51
2024-04-22T11:51:53.709Z,24.52
2024-04-22T11:52:53.758Z,24.55
2024-04-22T11:53:53.709Z,24.58
2024-04-22T11:54:53.721Z,24.60
2024-04-22T11:55:53.740Z,24.62
2024-04-22T11:56:53.704Z,24.65
2024-04-22T11:57:53.696Z,24.66
2024-04-22T11:58:53.812Z,24.68
2024-04-22T11:59:53.707Z,24.69
2024-04-22T12:00:53.729Z,24.72
2024-04-22T12:01:53.757Z,24.73
2024-04-22T12:02:53.719Z,24.68
2024-04-22T12:03:53.734Z,24.32
2024-04-22T12:04:54.306Z,23.74
2024-04-22T12:05:53.828Z,23.21
2024-04-22T12:06:53.735Z,22.87
2024-04-22T12:07:53.776Z,22.50
2024-04-22T12:08:53.731Z,22.21
2024-04-22T12:09:53.839Z,22.04
2024-04-22T12:10:53.898Z,21.89
2024-04-22T12:11:53.993Z,21.68
2024-04-22T12:12:54.062Z,21.54
2024-04-22T12:13:54.260Z,21.46
2024-04-22T12:14:54.195Z,21.30
2024-04-22T12:15:54.294Z,21.21
2024-04-22T12:16:54.425Z,21.12
2024-04-22T12:17:54.480Z,21.07
2024-04-22T12:18:54.542Z,21.07
2024-04-22T12:19:54.670Z,21.20
2024-04-22T12:20:54.820Z,21.41
2024-04-22T12:21:54.802Z,21.63
2024-04-22T12:22:55.190Z,21.84
2024-04-22T12:23:54.980Z,22.09
2024-04-22T12:24:55.063Z,22.31
2024-04-22T12:25:55.180Z,22.53
2024-04-22T12:26:55.217Z,22.73
2024-04-22T12:27:59.341Z,22.90
2024-04-22T12:28:55.385Z,23.05
2024-04-22T12:29:55.641Z,23.21
2024-04-22T12:30:55.353Z,23.35
2024-04-22T12:31:55.381Z,23.47
2024-04-22T12:32:55.467Z,23.51
2024-04-22T12:34:05.810Z,23.36
2024-04-22T12:34:55.449Z,23.20
2024-04-22T12:35:55.369Z,22.99
2024-04-22T12:36:55.373Z,22.83
2024-04-22T12:37:55.394Z,22.66
2024-04-22T12:38:55.474Z,22.52
2024-04-22T12:39:55.411Z,22.40
2024-04-22T12:40:55.465Z,22.26
2024-04-22T12:41:55.392Z,22.13
2024-04-22T12:42:55.381Z,22.00
2024-04-22T12:43:55.451Z,21.95
2024-04-22T12:44:55.395Z,21.86
2024-04-22T12:45:55.405Z,21.83
2024-04-22T12:46:55.455Z,21.77
2024-04-22T12:47:55.459Z,21.70
2024-04-22T12:48:55.430Z,21.63
2024-04-22T12:49:55.527Z,21.58
2024-04-22T12:50:55.429Z,21.57
2024-04-22T12:51:55.411Z,21.50
2024-04-22T12:52:55.413Z,21.46
2024-04-22T12:53:55.395Z,21.38